This is the latest recevied weather packets stored in our database for station/object SQ2LXT-10. If no packets are shown the sender has not sent any weather packets the latest 10 day(s).
| Time | Temp. | Humidity | Pressure | Rain* | Wind** | Luminosity | Snow |
|---|---|---|---|---|---|---|---|
| 1777865436 | 12.78° C | 99% | 1005.6 hPa | - | - | - | - |
| 1777864536 | 12.22° C | 100% | 1005.6 hPa | - | - | - | - |
| 1777863636 | 12.22° C | 100% | 1005.7 hPa | - | - | - | - |
| 1777862736 | 12.22° C | 100% | 1005.6 hPa | - | - | - | - |
| 1777861836 | 11.67° C | 100% | 1005.5 hPa | - | - | - | - |
| 1777860936 | 11.67° C | 100% | 1005.5 hPa | - | - | - | - |
| 1777860036 | 12.22° C | 100% | 1005.5 hPa | - | - | - | - |
| 1777859136 | 12.22° C | 98% | 1005.6 hPa | - | - | - | - |
| 1777858236 | 12.22° C | 95% | 1005.6 hPa | - | - | - | - |
| 1777857336 | 12.78° C | 90% | 1005.6 hPa | - | - | - | - |
| 1777856436 | 13.33° C | 85% | 1005.5 hPa | - | - | - | - |
| 1777855536 | 13.33° C | 83% | 1005.5 hPa | - | - | - | - |
| 1777854640 | 13.33° C | 80% | 1005.5 hPa | - | - | - | - |
| 1777853736 | 13.89° C | 74% | 1005.6 hPa | - | - | - | - |
| 1777852836 | 13.89° C | 71% | 1005.7 hPa | - | - | - | - |
| 1777851936 | 13.89° C | 66% | 1005.6 hPa | - | - | - | - |
| 1777851036 | 13.89° C | 63% | 1005.7 hPa | - | - | - | - |
| 1777850136 | 14.44° C | 58% | 1005.8 hPa | - | - | - | - |
| 1777849236 | 14.44° C | 56% | 1005.8 hPa | - | - | - | - |
| 1777848336 | 13.89° C | 55% | 1005.8 hPa | - | - | - | - |
| 1777847436 | 13.89° C | 52% | 1005.8 hPa | - | - | - | - |
| 1777846536 | 13.89° C | 52% | 1005.9 hPa | - | - | - | - |
| 1777845636 | 13.89° C | 51% | 1006 hPa | - | - | - | - |
| 1777844736 | 13.89° C | 50% | 1006.1 hPa | - | - | - | - |
| 1777843836 | 14.44° C | 46% | 1006 hPa | - | - | - | - |
* Rain since midnight (hover to see other rain measurements)
** Current wind speed in m/s (hover to see current wind gust speed)